createdAt,value
2019-03-19T00:00:56.161Z,12.19
2019-03-19T00:02:01.416Z,12.07
2019-03-19T00:03:06.706Z,11.65
2019-03-19T00:04:11.468Z,11.95
2019-03-19T00:05:16.443Z,12.08
2019-03-19T00:06:21.968Z,12.04
2019-03-19T00:07:27.242Z,11.90
2019-03-19T00:08:32.497Z,12.03
2019-03-19T00:09:37.506Z,12.12
2019-03-19T00:10:42.787Z,12.13
2019-03-19T00:11:47.764Z,11.88
2019-03-19T00:12:53.148Z,11.52
2019-03-19T00:13:58.212Z,11.63
2019-03-19T00:15:02.741Z,11.91
2019-03-19T00:16:07.727Z,11.98
2019-03-19T00:17:12.676Z,11.78
2019-03-19T00:18:17.137Z,11.83
2019-03-19T00:19:22.621Z,11.75
2019-03-19T00:20:27.696Z,11.77
2019-03-19T00:21:32.884Z,11.58
2019-03-19T00:22:37.678Z,11.50
2019-03-19T00:23:43.220Z,11.52
2019-03-19T00:24:48.190Z,11.39
2019-03-19T00:25:53.339Z,11.43
2019-03-19T00:26:58.619Z,11.40
2019-03-19T00:28:03.765Z,11.29
2019-03-19T00:29:09.028Z,11.19
2019-03-19T00:30:14.171Z,10.96
2019-03-19T00:31:19.160Z,10.96
2019-03-19T00:32:24.394Z,10.99
2019-03-19T00:33:29.384Z,10.41
2019-03-19T00:34:34.369Z,10.85
2019-03-19T00:35:39.633Z,10.96
2019-03-19T00:36:44.362Z,10.40
2019-03-19T00:37:49.679Z,10.56
2019-03-19T00:38:54.383Z,10.81
2019-03-19T00:39:59.709Z,10.88
2019-03-19T00:41:04.693Z,10.99
2019-03-19T00:42:09.667Z,11.15
2019-03-19T00:43:14.899Z,10.99
2019-03-19T00:44:20.073Z,10.76
2019-03-19T00:45:25.409Z,10.57
2019-03-19T00:46:30.788Z,10.73
2019-03-19T00:47:36.009Z,10.74
2019-03-19T00:48:41.519Z,11.02
2019-03-19T00:49:46.596Z,10.78
2019-03-19T00:50:51.458Z,10.88
2019-03-19T00:51:56.508Z,10.60
2019-03-19T00:53:01.730Z,10.54
2019-03-19T00:54:06.423Z,10.62
2019-03-19T00:55:11.140Z,10.54
2019-03-19T00:56:16.105Z,10.30
2019-03-19T00:57:20.849Z,10.32
2019-03-19T00:58:25.919Z,10.37
2019-03-19T00:59:31.177Z,10.39
2019-03-19T01:00:36.716Z,9.72
2019-03-19T01:01:41.672Z,10.30
2019-03-19T01:02:46.700Z,10.52
2019-03-19T01:03:51.773Z,10.61
2019-03-19T01:04:56.749Z,10.66
2019-03-19T01:06:01.745Z,10.77
2019-03-19T01:07:06.486Z,10.55
2019-03-19T01:08:11.476Z,10.57
2019-03-19T01:09:17.029Z,10.74
2019-03-19T01:10:22.243Z,10.52
2019-03-19T01:11:27.499Z,10.63
2019-03-19T01:12:32.219Z,10.63
2019-03-19T01:13:37.216Z,10.60
2019-03-19T01:14:42.299Z,10.55
2019-03-19T01:15:47.610Z,10.29
2019-03-19T01:16:53.278Z,9.87
2019-03-19T01:17:58.236Z,10.01
2019-03-19T01:19:02.970Z,10.12
2019-03-19T01:20:09.918Z,9.80
2019-03-19T01:21:15.520Z,10.08
2019-03-19T01:22:20.822Z,10.40
2019-03-19T01:23:25.273Z,10.29
2019-03-19T01:24:30.139Z,10.03
2019-03-19T01:25:35.392Z,10.26
2019-03-19T01:26:40.372Z,10.25
2019-03-19T01:27:45.361Z,9.90
2019-03-19T01:28:51.030Z,9.80
2019-03-19T01:29:56.279Z,9.92
2019-03-19T01:31:01.303Z,9.90
2019-03-19T01:32:06.023Z,9.80
2019-03-19T01:33:10.739Z,9.72
2019-03-19T01:34:16.050Z,9.49
2019-03-19T01:35:21.095Z,9.89
2019-03-19T01:36:26.623Z,9.44
2019-03-19T01:37:32.159Z,9.62
2019-03-19T01:38:37.147Z,9.62
2019-03-19T01:39:42.742Z,9.46
2019-03-19T01:40:47.701Z,9.35
2019-03-19T01:41:53.009Z,9.27
2019-03-19T01:42:58.268Z,8.80
2019-03-19T01:44:03.251Z,9.29
2019-03-19T01:45:08.526Z,9.14
2019-03-19T01:46:13.261Z,9.45
2019-03-19T01:47:18.257Z,9.41
2019-03-19T01:48:23.521Z,9.27
2019-03-19T01:49:29.078Z,9.06
2019-03-19T01:50:34.366Z,9.18
2019-03-19T01:51:39.384Z,9.55
2019-03-19T01:52:44.375Z,9.04
2019-03-19T01:53:49.070Z,9.39
2019-03-19T01:54:53.854Z,9.53
2019-03-19T01:56:05.108Z,9.43
2019-03-19T01:57:05.937Z,9.40
2019-03-19T01:58:11.039Z,9.31
2019-03-19T01:59:16.001Z,9.26
2019-03-19T02:00:21.190Z,9.04
2019-03-19T02:01:25.870Z,9.27
2019-03-19T02:02:30.871Z,9.46
2019-03-19T02:03:36.416Z,9.56
2019-03-19T02:04:41.467Z,9.50
2019-03-19T02:05:47.009Z,9.52
2019-03-19T02:06:52.091Z,9.51
2019-03-19T02:07:57.413Z,9.68
2019-03-19T02:09:02.490Z,9.55
2019-03-19T02:10:08.359Z,9.44
2019-03-19T02:11:13.888Z,9.00
2019-03-19T02:12:18.566Z,9.19
2019-03-19T02:13:23.021Z,9.14
2019-03-19T02:14:28.736Z,9.22
2019-03-19T02:15:34.046Z,9.11
2019-03-19T02:16:39.036Z,9.28
2019-03-19T02:17:44.000Z,9.33
2019-03-19T02:18:49.563Z,9.34
2019-03-19T02:19:54.510Z,9.16
2019-03-19T02:20:59.539Z,9.27
2019-03-19T02:22:04.027Z,9.25
2019-03-19T02:23:09.270Z,8.84
2019-03-19T02:24:13.975Z,9.05
2019-03-19T02:25:19.236Z,8.88
2019-03-19T02:26:24.297Z,9.30
2019-03-19T02:27:29.758Z,9.32
2019-03-19T02:28:35.272Z,9.12
2019-03-19T02:29:40.534Z,9.27
2019-03-19T02:30:45.521Z,9.36
2019-03-19T02:31:50.509Z,9.32
2019-03-19T02:32:55.811Z,8.86
2019-03-19T02:34:01.271Z,8.08
2019-03-19T02:35:06.234Z,8.58
2019-03-19T02:36:11.775Z,8.25
2019-03-19T02:37:17.054Z,8.65
2019-03-19T02:38:22.118Z,8.97
2019-03-19T02:39:27.716Z,8.99
2019-03-19T02:40:33.187Z,8.66
2019-03-19T02:41:37.891Z,8.62
2019-03-19T02:42:42.875Z,8.77
2019-03-19T02:43:47.589Z,8.80
2019-03-19T02:44:56.134Z,8.73
2019-03-19T02:46:01.681Z,8.64
2019-03-19T02:47:06.965Z,8.56
2019-03-19T02:48:11.695Z,9.00
2019-03-19T02:49:16.795Z,8.95
2019-03-19T02:50:22.597Z,8.84
2019-03-19T02:51:27.566Z,8.91
2019-03-19T02:52:32.888Z,8.71
2019-03-19T02:53:37.917Z,8.99
2019-03-19T02:54:43.153Z,8.90
2019-03-19T02:55:48.152Z,9.00
2019-03-19T02:56:53.196Z,8.93
2019-03-19T02:57:58.153Z,9.06
2019-03-19T02:59:03.192Z,8.98
2019-03-19T03:00:08.243Z,8.90
2019-03-19T03:01:13.239Z,8.79
2019-03-19T03:02:18.262Z,8.80
2019-03-19T03:03:22.979Z,8.62
2019-03-19T03:04:28.010Z,8.77
2019-03-19T03:05:32.750Z,8.66
2019-03-19T03:06:38.045Z,8.41
2019-03-19T03:07:43.071Z,8.31
2019-03-19T03:08:48.381Z,8.12
2019-03-19T03:09:53.381Z,8.44
2019-03-19T03:10:58.374Z,8.50
2019-03-19T03:12:03.349Z,8.59
2019-03-19T03:13:08.354Z,8.92
2019-03-19T03:14:13.344Z,8.95
2019-03-19T03:15:18.351Z,8.94
2019-03-19T03:16:23.956Z,9.00
2019-03-19T03:17:28.915Z,8.94
2019-03-19T03:18:33.590Z,8.73
2019-03-19T03:19:38.680Z,8.71
2019-03-19T03:20:43.735Z,8.89
2019-03-19T03:21:49.033Z,8.59
2019-03-19T03:22:54.083Z,8.80
2019-03-19T03:23:59.324Z,8.67
2019-03-19T03:25:04.931Z,8.66
2019-03-19T03:26:09.638Z,8.80
2019-03-19T03:27:14.383Z,8.83
2019-03-19T03:28:19.406Z,8.71
2019-03-19T03:29:24.507Z,8.71
2019-03-19T03:30:29.886Z,8.65
2019-03-19T03:31:35.182Z,8.15
2019-03-19T03:32:40.477Z,8.57
2019-03-19T03:33:45.753Z,8.53
2019-03-19T03:34:52.128Z,8.59
2019-03-19T03:35:57.654Z,8.81
2019-03-19T03:37:02.679Z,8.98
2019-03-19T03:38:07.719Z,9.02
2019-03-19T03:39:13.127Z,8.52
2019-03-19T03:40:18.214Z,8.64
2019-03-19T03:41:23.194Z,8.64
2019-03-19T03:42:28.433Z,8.79
2019-03-19T03:43:33.188Z,9.00
2019-03-19T03:44:38.836Z,9.00
2019-03-19T03:45:43.945Z,8.95
2019-03-19T03:46:49.235Z,8.98
2019-03-19T03:47:54.201Z,8.81
2019-03-19T03:48:59.174Z,9.02
2019-03-19T03:50:03.968Z,8.96
2019-03-19T03:51:09.018Z,9.04
2019-03-19T03:52:13.697Z,8.89
2019-03-19T03:53:18.926Z,8.86
2019-03-19T03:54:24.459Z,8.78
2019-03-19T03:55:31.267Z,8.60
2019-03-19T03:56:36.094Z,8.46
2019-03-19T03:57:40.829Z,8.52
2019-03-19T03:58:59.628Z,8.38
2019-03-19T03:59:53.085Z,8.51
2019-03-19T04:00:58.656Z,8.29
2019-03-19T04:02:03.132Z,8.08
2019-03-19T04:03:07.874Z,8.27
2019-03-19T04:04:12.889Z,8.38
2019-03-19T04:05:17.702Z,8.29
2019-03-19T04:06:22.688Z,8.18
2019-03-19T04:07:28.044Z,8.16
2019-03-19T04:08:34.085Z,8.19
2019-03-19T04:09:39.376Z,8.31
2019-03-19T04:10:44.410Z,8.12
2019-03-19T04:11:49.463Z,8.27
2019-03-19T04:12:54.487Z,8.37
2019-03-19T04:14:00.036Z,8.26
2019-03-19T04:15:05.268Z,8.29
2019-03-19T04:16:10.228Z,8.33
2019-03-19T04:17:15.484Z,8.46
2019-03-19T04:18:21.106Z,8.43
2019-03-19T04:19:26.126Z,8.63
2019-03-19T04:20:31.696Z,8.43
2019-03-19T04:21:36.409Z,8.30
2019-03-19T04:22:41.646Z,8.62
2019-03-19T04:23:46.345Z,8.67
2019-03-19T04:24:51.357Z,8.46
2019-03-19T04:25:56.394Z,8.51
2019-03-19T04:27:14.890Z,8.45
2019-03-19T04:28:08.193Z,8.56
2019-03-19T04:29:13.806Z,8.29
2019-03-19T04:30:18.259Z,8.40
2019-03-19T04:31:23.656Z,8.24
2019-03-19T04:32:28.622Z,8.14
2019-03-19T04:33:33.915Z,8.07
2019-03-19T04:34:39.571Z,8.20
2019-03-19T04:35:44.799Z,8.15
2019-03-19T04:36:50.205Z,8.20
2019-03-19T04:37:55.545Z,8.21
2019-03-19T04:39:01.124Z,8.28
2019-03-19T04:40:06.186Z,8.08
2019-03-19T04:41:10.870Z,8.33
2019-03-19T04:42:16.182Z,8.00
2019-03-19T04:43:21.198Z,7.52
2019-03-19T04:44:26.200Z,7.65
2019-03-19T04:45:31.754Z,7.61
2019-03-19T04:46:37.027Z,7.71
2019-03-19T04:47:42.390Z,8.02
2019-03-19T04:48:48.050Z,7.93
2019-03-19T04:49:53.590Z,7.76
2019-03-19T04:50:58.609Z,7.61
2019-03-19T04:52:04.195Z,7.88
2019-03-19T04:53:09.191Z,7.85
2019-03-19T04:54:14.445Z,7.61
2019-03-19T04:55:19.464Z,7.76
2019-03-19T04:56:24.735Z,7.72
2019-03-19T04:57:29.463Z,7.97
2019-03-19T04:58:34.777Z,7.73
2019-03-19T04:59:40.066Z,7.52
2019-03-19T05:00:44.829Z,7.71
2019-03-19T05:01:49.805Z,8.06
2019-03-19T05:02:55.348Z,7.67
2019-03-19T05:04:00.884Z,7.54
2019-03-19T05:05:06.188Z,7.33
2019-03-19T05:06:11.318Z,7.66
2019-03-19T05:07:19.931Z,7.73
2019-03-19T05:08:24.976Z,7.45
2019-03-19T05:09:29.945Z,7.85
2019-03-19T05:10:34.655Z,7.88
2019-03-19T05:11:39.620Z,7.72
2019-03-19T05:12:44.684Z,7.60
2019-03-19T05:13:49.335Z,7.94
2019-03-19T05:14:54.335Z,7.65
2019-03-19T05:15:59.578Z,7.75
2019-03-19T05:17:05.106Z,7.89
2019-03-19T05:18:10.496Z,7.89
2019-03-19T05:19:15.490Z,7.78
2019-03-19T05:20:20.200Z,7.68
2019-03-19T05:21:25.550Z,7.87
2019-03-19T05:22:30.969Z,7.73
2019-03-19T05:23:35.949Z,7.86
2019-03-19T05:24:41.278Z,7.77
2019-03-19T05:25:46.021Z,7.73
2019-03-19T05:26:51.025Z,7.62
2019-03-19T05:27:57.462Z,7.68
2019-03-19T05:29:02.794Z,7.66
2019-03-19T05:30:08.693Z,7.55
2019-03-19T05:31:13.967Z,7.57
2019-03-19T05:32:19.248Z,7.43
2019-03-19T05:33:24.251Z,7.50
2019-03-19T05:34:29.528Z,7.67
2019-03-19T05:35:34.522Z,7.47
2019-03-19T05:36:39.271Z,7.47
2019-03-19T05:37:44.620Z,7.37
2019-03-19T05:38:49.582Z,7.55
2019-03-19T05:39:55.085Z,7.66
2019-03-19T05:41:00.437Z,7.45
2019-03-19T05:42:05.689Z,7.66
2019-03-19T05:43:10.810Z,7.66
2019-03-19T05:44:16.090Z,7.58
2019-03-19T05:45:21.361Z,7.66
2019-03-19T05:46:27.110Z,7.57
2019-03-19T05:47:37.061Z,7.61
2019-03-19T05:48:38.526Z,7.35
2019-03-19T05:49:43.730Z,7.78
2019-03-19T05:50:49.348Z,7.85
2019-03-19T05:51:57.671Z,7.79
2019-03-19T05:53:02.730Z,7.76
2019-03-19T05:54:07.465Z,7.62
2019-03-19T05:55:12.307Z,7.81
2019-03-19T05:56:17.033Z,7.87
2019-03-19T05:57:22.307Z,7.77
2019-03-19T05:58:27.047Z,7.52
2019-03-19T05:59:32.324Z,7.58
2019-03-19T06:00:37.703Z,7.67
2019-03-19T06:01:42.492Z,7.48
2019-03-19T06:02:48.045Z,7.47
2019-03-19T06:03:53.093Z,7.48
2019-03-19T06:04:57.544Z,7.68
2019-03-19T06:06:02.815Z,7.75
2019-03-19T06:07:07.805Z,7.44
2019-03-19T06:08:13.366Z,7.55
2019-03-19T06:09:18.613Z,7.83
2019-03-19T06:10:25.854Z,7.77
2019-03-19T06:11:30.343Z,7.63
2019-03-19T06:12:35.609Z,7.57
2019-03-19T06:13:40.564Z,7.73
2019-03-19T06:14:45.295Z,7.85
2019-03-19T06:15:50.798Z,7.57
2019-03-19T06:16:55.553Z,7.80
2019-03-19T06:18:01.243Z,7.58
2019-03-19T06:19:06.214Z,7.79
2019-03-19T06:20:12.097Z,7.89
2019-03-19T06:21:17.052Z,7.89
2019-03-19T06:22:22.066Z,7.76
2019-03-19T06:23:27.055Z,8.05
2019-03-19T06:24:31.774Z,7.99
2019-03-19T06:25:37.041Z,8.05
2019-03-19T06:26:42.516Z,8.16
2019-03-19T06:27:47.557Z,7.80
2019-03-19T06:28:53.162Z,8.03
2019-03-19T06:29:58.426Z,8.12
2019-03-19T06:31:03.675Z,8.12
2019-03-19T06:32:08.458Z,7.97
2019-03-19T06:33:13.502Z,8.00
2019-03-19T06:34:18.569Z,8.04
2019-03-19T06:35:23.923Z,8.02
2019-03-19T06:36:28.895Z,8.23
2019-03-19T06:37:33.672Z,8.33
2019-03-19T06:38:38.386Z,8.43
2019-03-19T06:39:43.397Z,8.16
2019-03-19T06:40:48.066Z,8.26
2019-03-19T06:41:53.687Z,8.41
2019-03-19T06:42:59.058Z,8.36
2019-03-19T06:44:04.055Z,8.60
2019-03-19T06:45:10.576Z,8.87
2019-03-19T06:46:15.264Z,8.78
2019-03-19T06:47:20.340Z,8.64
2019-03-19T06:48:25.303Z,8.55
2019-03-19T06:49:30.570Z,8.59
2019-03-19T06:50:44.803Z,8.54
2019-03-19T06:51:42.707Z,8.62
2019-03-19T06:52:47.957Z,8.66
2019-03-19T06:53:52.957Z,8.70
2019-03-19T06:54:58.059Z,8.84
2019-03-19T06:56:03.318Z,9.07
2019-03-19T06:57:08.371Z,9.02
2019-03-19T06:58:12.843Z,8.93
2019-03-19T06:59:18.172Z,9.22
2019-03-19T07:00:23.111Z,9.22
2019-03-19T07:01:27.797Z,9.31
2019-03-19T07:02:33.041Z,9.68
2019-03-19T07:03:38.523Z,9.90
2019-03-19T07:04:43.794Z,10.13
2019-03-19T07:05:48.781Z,10.38
2019-03-19T07:06:53.685Z,10.30
2019-03-19T07:07:58.918Z,10.41
2019-03-19T07:09:04.650Z,10.41
2019-03-19T07:10:10.410Z,10.20
2019-03-19T07:11:15.370Z,10.73
2019-03-19T07:12:20.610Z,10.75
2019-03-19T07:13:26.149Z,10.66
2019-03-19T07:14:31.185Z,11.15
2019-03-19T07:15:36.241Z,11.29
2019-03-19T07:16:41.516Z,11.28
2019-03-19T07:17:46.518Z,11.14
2019-03-19T07:18:51.718Z,11.86
2019-03-19T07:19:56.603Z,12.20
2019-03-19T07:21:01.998Z,12.07
2019-03-19T07:22:06.983Z,12.30
2019-03-19T07:23:12.332Z,12.62
2019-03-19T07:24:17.929Z,12.88
2019-03-19T07:25:22.944Z,12.71
2019-03-19T07:26:27.936Z,13.02
2019-03-19T07:27:33.025Z,12.34
2019-03-19T07:28:37.917Z,11.97
2019-03-19T07:29:43.201Z,11.70
2019-03-19T07:30:48.743Z,11.89
2019-03-19T07:31:53.532Z,12.18
2019-03-19T07:32:58.893Z,12.92
2019-03-19T07:34:03.653Z,13.39
2019-03-19T07:35:09.585Z,12.48
2019-03-19T07:36:15.143Z,12.73
2019-03-19T07:37:20.700Z,13.42
2019-03-19T07:38:26.108Z,13.67
2019-03-19T07:39:30.912Z,13.83
2019-03-19T07:40:36.247Z,12.81
2019-03-19T07:41:41.505Z,13.78
2019-03-19T07:42:46.761Z,14.14
2019-03-19T07:43:52.138Z,14.05
2019-03-19T07:44:56.754Z,14.76
2019-03-19T07:46:02.032Z,15.01
2019-03-19T07:47:06.765Z,14.63
2019-03-19T07:48:12.030Z,13.53
2019-03-19T07:49:17.555Z,12.92
2019-03-19T07:50:23.049Z,13.57
2019-03-19T07:51:28.310Z,13.59
2019-03-19T07:52:33.372Z,13.93
2019-03-19T07:53:38.355Z,14.51
2019-03-19T07:54:43.040Z,14.60
2019-03-19T07:55:47.754Z,14.51
2019-03-19T07:56:53.286Z,15.02
2019-03-19T07:57:58.368Z,15.19
2019-03-19T07:59:03.924Z,15.49
2019-03-19T08:00:09.522Z,14.62
2019-03-19T08:01:14.504Z,14.85
2019-03-19T08:02:18.991Z,14.77
2019-03-19T08:03:24.056Z,15.26
2019-03-19T08:04:29.057Z,14.40
2019-03-19T08:05:34.426Z,15.11
2019-03-19T08:06:39.354Z,14.53
2019-03-19T08:07:44.671Z,15.08
2019-03-19T08:08:50.061Z,15.90
2019-03-19T08:09:55.352Z,16.33
2019-03-19T08:11:00.112Z,16.48
2019-03-19T08:12:04.795Z,16.42
2019-03-19T08:13:09.782Z,16.00
2019-03-19T08:14:14.317Z,15.78
2019-03-19T08:15:19.263Z,16.32
2019-03-19T08:16:27.645Z,16.82
2019-03-19T08:17:31.832Z,16.67
2019-03-19T08:18:37.073Z,16.50
2019-03-19T08:19:41.768Z,17.04
2019-03-19T08:20:47.008Z,16.17
2019-03-19T08:21:52.278Z,16.47
2019-03-19T08:22:57.278Z,17.15
2019-03-19T08:24:02.547Z,17.33
2019-03-19T08:25:08.807Z,17.68
2019-03-19T08:26:14.024Z,16.31
2019-03-19T08:27:19.240Z,17.60
2019-03-19T08:28:24.804Z,18.19
2019-03-19T08:29:30.072Z,17.39
2019-03-19T08:30:35.328Z,18.31
2019-03-19T08:31:40.356Z,18.66
2019-03-19T08:32:45.624Z,18.58
2019-03-19T08:33:51.029Z,19.06
2019-03-19T08:34:56.383Z,19.86
2019-03-19T08:36:08.964Z,20.99
2019-03-19T08:37:07.137Z,22.71
2019-03-19T08:38:12.437Z,23.78
2019-03-19T08:39:17.155Z,25.47
2019-03-19T08:40:22.442Z,25.57
2019-03-19T08:41:27.597Z,26.25
2019-03-19T08:42:32.577Z,26.87
2019-03-19T08:43:37.383Z,28.60
2019-03-19T08:44:42.361Z,30.61
2019-03-19T08:45:47.361Z,30.61
2019-03-19T08:46:52.130Z,31.06
2019-03-19T08:47:57.418Z,32.03
2019-03-19T08:49:02.652Z,32.18
2019-03-19T08:50:08.325Z,33.33
2019-03-19T08:51:13.384Z,33.40
2019-03-19T08:52:18.120Z,34.21
2019-03-19T08:53:23.393Z,33.39
2019-03-19T08:54:28.962Z,31.34
2019-03-19T08:55:34.306Z,33.25
2019-03-19T08:56:39.032Z,34.02
2019-03-19T08:57:44.054Z,32.78
2019-03-19T08:58:49.405Z,34.42
2019-03-19T08:59:57.111Z,34.22
2019-03-19T09:01:01.679Z,34.95
2019-03-19T09:02:06.397Z,35.15
2019-03-19T09:03:11.191Z,35.80
2019-03-19T09:04:16.211Z,36.01
2019-03-19T09:05:21.201Z,35.17
2019-03-19T09:06:26.428Z,33.92
2019-03-19T09:07:31.266Z,35.32
2019-03-19T09:08:36.518Z,35.70
2019-03-19T09:09:41.840Z,36.40
2019-03-19T09:10:47.159Z,37.23
2019-03-19T09:11:52.191Z,37.69
2019-03-19T09:12:57.265Z,37.55
2019-03-19T09:14:02.624Z,37.85
2019-03-19T09:15:08.925Z,37.33
2019-03-19T09:16:13.379Z,35.03
2019-03-19T09:17:18.631Z,36.75
2019-03-19T09:18:23.706Z,37.99
2019-03-19T09:19:28.786Z,37.33
2019-03-19T09:20:33.792Z,38.55
2019-03-19T09:21:38.969Z,38.69
2019-03-19T09:22:43.974Z,38.89
2019-03-19T09:23:48.930Z,37.68
2019-03-19T09:24:54.523Z,38.09
2019-03-19T09:25:59.247Z,38.63
2019-03-19T09:27:04.111Z,38.22
2019-03-19T09:28:09.179Z,37.20
2019-03-19T09:29:16.995Z,38.21
2019-03-19T09:30:20.933Z,37.78
2019-03-19T09:31:26.412Z,38.78
2019-03-19T09:32:31.992Z,37.51
2019-03-19T09:33:37.250Z,38.25
2019-03-19T09:34:42.248Z,38.60
2019-03-19T09:35:47.212Z,36.32
2019-03-19T09:36:57.183Z,37.86
2019-03-19T09:37:59.356Z,37.36
2019-03-19T09:39:05.798Z,35.62
2019-03-19T09:40:12.187Z,37.10
2019-03-19T09:41:17.465Z,33.45
2019-03-19T09:42:22.259Z,36.90
2019-03-19T09:43:27.256Z,37.58
2019-03-19T09:44:32.019Z,38.84
2019-03-19T09:45:36.711Z,38.87
2019-03-19T09:46:41.647Z,35.26
2019-03-19T09:47:46.576Z,37.21
2019-03-19T09:48:51.739Z,34.48
2019-03-19T09:49:56.733Z,37.13
2019-03-19T09:51:01.749Z,38.21
2019-03-19T09:52:06.736Z,39.07
2019-03-19T09:53:11.727Z,39.76
2019-03-19T09:54:19.444Z,35.98
2019-03-19T09:55:23.947Z,37.79
2019-03-19T09:56:29.186Z,39.40
2019-03-19T09:57:34.218Z,36.05
2019-03-19T09:58:39.180Z,33.01
2019-03-19T09:59:44.650Z,31.64
2019-03-19T10:00:49.966Z,33.39
2019-03-19T10:01:55.001Z,36.43
2019-03-19T10:03:00.008Z,33.10
2019-03-19T10:04:04.983Z,31.66
2019-03-19T10:05:09.664Z,28.76
2019-03-19T10:06:14.712Z,25.45
2019-03-19T10:07:19.667Z,24.66
2019-03-19T10:08:24.636Z,23.72
2019-03-19T10:09:29.657Z,23.54
2019-03-19T10:10:34.683Z,24.44
2019-03-19T10:11:40.305Z,24.10
2019-03-19T10:12:45.293Z,24.33
2019-03-19T10:13:50.112Z,24.20
2019-03-19T10:14:54.882Z,24.18
2019-03-19T10:15:59.540Z,24.07
2019-03-19T10:17:04.505Z,23.87
2019-03-19T10:18:09.786Z,23.46
2019-03-19T10:19:14.486Z,23.03
2019-03-19T10:20:19.214Z,22.46
2019-03-19T10:21:24.216Z,22.63
2019-03-19T10:22:29.442Z,22.79
2019-03-19T10:23:34.114Z,21.90
2019-03-19T10:24:39.526Z,21.41
2019-03-19T10:25:44.255Z,21.32
2019-03-19T10:26:49.520Z,21.16
2019-03-19T10:27:55.319Z,21.18
2019-03-19T10:29:00.058Z,20.81
2019-03-19T10:30:05.576Z,21.11
2019-03-19T10:31:11.179Z,20.12
2019-03-19T10:32:16.476Z,20.99
2019-03-19T10:33:21.162Z,21.12
2019-03-19T10:34:26.149Z,21.12
2019-03-19T10:35:31.166Z,21.59
2019-03-19T10:36:35.906Z,21.42
2019-03-19T10:37:40.928Z,21.26
2019-03-19T10:38:45.998Z,21.64
2019-03-19T10:39:51.397Z,21.51
2019-03-19T10:40:56.674Z,22.00
2019-03-19T10:42:01.937Z,21.93
2019-03-19T10:43:07.257Z,22.47
2019-03-19T10:44:12.248Z,21.88
2019-03-19T10:45:16.982Z,22.61
2019-03-19T10:46:21.944Z,21.91
2019-03-19T10:47:26.934Z,20.66
2019-03-19T10:48:32.031Z,20.76
2019-03-19T10:49:37.340Z,21.09
2019-03-19T10:50:42.065Z,21.11
2019-03-19T10:51:47.123Z,21.62
2019-03-19T10:52:52.384Z,22.02
2019-03-19T10:53:57.095Z,22.36
2019-03-19T10:55:01.846Z,22.51
2019-03-19T10:56:07.185Z,21.78
2019-03-19T10:57:12.128Z,22.17
2019-03-19T10:58:16.923Z,22.08
2019-03-19T10:59:22.281Z,22.17
2019-03-19T11:00:27.126Z,22.47
2019-03-19T11:01:32.430Z,22.18
2019-03-19T11:02:36.893Z,21.91
2019-03-19T11:03:42.214Z,22.34
2019-03-19T11:04:46.662Z,22.82
2019-03-19T11:05:52.160Z,23.03
2019-03-19T11:06:56.871Z,22.61
2019-03-19T11:08:01.909Z,22.20
2019-03-19T11:09:08.720Z,22.05
2019-03-19T11:10:13.858Z,22.05
2019-03-19T11:11:18.544Z,22.57
2019-03-19T11:12:23.591Z,22.56
2019-03-19T11:13:28.692Z,22.89
2019-03-19T11:14:33.994Z,21.56
2019-03-19T11:15:39.286Z,21.56
2019-03-19T11:16:43.976Z,22.38
2019-03-19T11:17:48.935Z,22.84
2019-03-19T11:18:53.922Z,22.92
2019-03-19T11:19:58.908Z,23.04
2019-03-19T11:21:03.596Z,23.40
2019-03-19T11:22:08.340Z,23.36
2019-03-19T11:23:13.911Z,23.36
2019-03-19T11:24:19.456Z,23.28
2019-03-19T11:25:24.293Z,23.31
2019-03-19T11:26:29.038Z,23.31
2019-03-19T11:27:33.997Z,22.78
2019-03-19T11:28:38.972Z,21.82
2019-03-19T11:29:43.656Z,22.14
2019-03-19T11:30:48.333Z,21.94
2019-03-19T11:31:53.120Z,21.53
2019-03-19T11:32:58.253Z,21.58
2019-03-19T11:34:03.253Z,21.69
2019-03-19T11:35:08.607Z,21.36
2019-03-19T11:36:13.969Z,21.18
2019-03-19T11:37:18.968Z,20.45
2019-03-19T11:38:23.992Z,20.45
2019-03-19T11:39:29.562Z,20.71
2019-03-19T11:40:34.558Z,21.73
2019-03-19T11:41:40.110Z,21.65
2019-03-19T11:42:44.811Z,21.64
2019-03-19T11:43:49.821Z,21.71
2019-03-19T11:44:55.565Z,22.25
2019-03-19T11:46:00.516Z,22.29
2019-03-19T11:47:05.500Z,22.87
2019-03-19T11:48:10.196Z,23.04
2019-03-19T11:49:15.181Z,23.25
2019-03-19T11:50:21.331Z,23.14
2019-03-19T11:51:26.239Z,23.37
2019-03-19T11:52:31.492Z,23.37
2019-03-19T11:53:37.025Z,26.65
2019-03-19T11:54:41.783Z,26.65
2019-03-19T11:55:46.983Z,30.12
2019-03-19T11:56:52.026Z,32.86
2019-03-19T11:57:59.576Z,33.91
2019-03-19T11:59:04.276Z,33.90
2019-03-19T12:00:12.854Z,34.13
2019-03-19T12:01:17.907Z,34.34
2019-03-19T12:02:26.154Z,34.47
2019-03-19T12:03:29.490Z,36.02
2019-03-19T12:04:34.725Z,37.62
2019-03-19T12:05:39.540Z,38.04
2019-03-19T12:06:44.531Z,37.83
2019-03-19T12:07:49.891Z,36.84
2019-03-19T12:08:54.876Z,36.87
2019-03-19T12:10:00.374Z,37.37
2019-03-19T12:11:05.331Z,37.45
2019-03-19T12:12:11.628Z,37.57
2019-03-19T12:13:16.947Z,38.21
2019-03-19T12:14:21.943Z,37.07
2019-03-19T12:15:26.924Z,35.96
2019-03-19T12:16:32.201Z,32.32
2019-03-19T12:17:37.220Z,34.19
2019-03-19T12:18:42.322Z,36.80
2019-03-19T12:19:47.363Z,37.37
2019-03-19T12:20:52.041Z,37.55
2019-03-19T12:21:56.758Z,36.10
2019-03-19T12:23:01.739Z,36.52
2019-03-19T12:24:06.751Z,35.39
2019-03-19T12:25:11.364Z,36.00
2019-03-19T12:26:16.105Z,35.66
2019-03-19T12:27:21.174Z,35.95
2019-03-19T12:28:25.609Z,36.17
2019-03-19T12:29:30.859Z,35.24
2019-03-19T12:30:35.296Z,34.76
2019-03-19T12:31:40.312Z,33.80
2019-03-19T12:32:45.603Z,32.55
2019-03-19T12:33:50.382Z,31.67
2019-03-19T12:34:55.069Z,28.54
2019-03-19T12:35:59.812Z,28.60
2019-03-19T12:37:04.940Z,28.10
2019-03-19T12:38:10.196Z,27.22
2019-03-19T12:39:15.739Z,26.80
2019-03-19T12:40:20.765Z,25.98
2019-03-19T12:41:26.010Z,25.63
2019-03-19T12:42:30.980Z,25.47
2019-03-19T12:43:36.806Z,25.09
2019-03-19T12:44:41.764Z,24.93
2019-03-19T12:45:47.047Z,24.46
2019-03-19T12:46:51.830Z,23.90
2019-03-19T12:47:56.791Z,24.69
2019-03-19T12:49:01.671Z,24.89
2019-03-19T12:50:07.318Z,23.57
2019-03-19T12:51:12.308Z,23.95
2019-03-19T12:52:17.292Z,24.47
2019-03-19T12:53:22.365Z,24.50
2019-03-19T12:54:27.630Z,24.54
2019-03-19T12:55:33.184Z,24.67
2019-03-19T12:56:38.177Z,24.58
2019-03-19T12:57:42.929Z,24.85
2019-03-19T12:58:47.940Z,23.92
2019-03-19T12:59:52.648Z,24.07
2019-03-19T13:00:57.416Z,22.84
2019-03-19T13:02:02.075Z,23.42
2019-03-19T13:03:06.761Z,23.68
2019-03-19T13:04:11.872Z,23.62
2019-03-19T13:05:17.122Z,23.54
2019-03-19T13:06:22.670Z,23.44
2019-03-19T13:07:27.485Z,23.36
2019-03-19T13:08:31.956Z,23.23
2019-03-19T13:09:36.685Z,22.76
2019-03-19T13:10:41.944Z,23.04
2019-03-19T13:11:46.957Z,23.59
2019-03-19T13:12:52.313Z,23.43
2019-03-19T13:13:57.683Z,23.08
2019-03-19T13:15:02.375Z,23.36
2019-03-19T13:16:07.333Z,23.20
2019-03-19T13:17:11.861Z,22.55
2019-03-19T13:18:17.400Z,23.14
2019-03-19T13:19:22.219Z,23.25
2019-03-19T13:20:26.912Z,23.42
2019-03-19T13:21:31.884Z,23.12
2019-03-19T13:22:37.122Z,23.26
2019-03-19T13:23:41.861Z,23.16
2019-03-19T13:24:46.305Z,23.49
2019-03-19T13:25:50.988Z,23.20
2019-03-19T13:26:56.067Z,22.16
2019-03-19T13:28:00.789Z,22.81
2019-03-19T13:29:06.096Z,23.17
2019-03-19T13:30:13.760Z,22.93
2019-03-19T13:31:18.991Z,22.73
2019-03-19T13:32:23.818Z,22.64
2019-03-19T13:33:28.831Z,22.45
2019-03-19T13:34:34.416Z,22.60
2019-03-19T13:35:39.158Z,22.80
2019-03-19T13:36:43.598Z,22.96
2019-03-19T13:37:48.277Z,22.87
2019-03-19T13:38:53.418Z,22.21
2019-03-19T13:39:58.412Z,22.12
2019-03-19T13:41:03.708Z,22.30
2019-03-19T13:42:08.406Z,21.48
2019-03-19T13:43:13.414Z,22.03
2019-03-19T13:44:18.151Z,21.84
2019-03-19T13:45:22.969Z,21.26
2019-03-19T13:46:28.529Z,21.62
2019-03-19T13:47:33.761Z,21.29
2019-03-19T13:48:39.003Z,21.23
2019-03-19T13:49:43.988Z,21.34
2019-03-19T13:50:49.276Z,21.34
2019-03-19T13:51:54.813Z,19.95
2019-03-19T13:52:59.508Z,20.77
2019-03-19T13:54:04.001Z,20.77
2019-03-19T13:55:09.801Z,20.71
2019-03-19T13:56:14.763Z,21.06
2019-03-19T13:57:19.827Z,21.40
2019-03-19T13:58:27.139Z,21.73
2019-03-19T13:59:31.807Z,22.13
2019-03-19T14:00:36.498Z,22.05
2019-03-19T14:01:41.214Z,22.01
2019-03-19T14:02:46.301Z,21.86
2019-03-19T14:03:52.594Z,22.07
2019-03-19T14:04:57.403Z,22.58
2019-03-19T14:06:02.106Z,22.14
2019-03-19T14:07:06.860Z,22.41
2019-03-19T14:08:11.393Z,22.09
2019-03-19T14:09:16.212Z,21.78
2019-03-19T14:10:21.480Z,21.77